sensor_id;sensor_type;location;lat;lon;timestamp;P1;durP1;ratioP1;P2;durP2;ratioP2
76640;SDS011;65538;50.798;6.064;2023-02-18T00:01:11;17.63;;;6.90;;
76640;SDS011;65538;50.798;6.064;2023-02-18T00:03:36;12.50;;;6.75;;
76640;SDS011;65538;50.798;6.064;2023-02-18T00:06:12;12.70;;;6.88;;
76640;SDS011;65538;50.798;6.064;2023-02-18T00:11:04;11.25;;;5.43;;
76640;SDS011;65538;50.798;6.064;2023-02-18T00:13:29;11.75;;;6.18;;
76640;SDS011;65538;50.798;6.064;2023-02-18T00:15:59;13.83;;;7.27;;
76640;SDS011;65538;50.798;6.064;2023-02-18T00:18:24;14.23;;;5.88;;
76640;SDS011;65538;50.798;6.064;2023-02-18T00:20:49;10.93;;;5.43;;
76640;SDS011;65538;50.798;6.064;2023-02-18T00:23:14;15.37;;;9.13;;
76640;SDS011;65538;50.798;6.064;2023-02-18T00:25:39;11.40;;;4.10;;
76640;SDS011;65538;50.798;6.064;2023-02-18T00:28:04;11.47;;;7.60;;
76640;SDS011;65538;50.798;6.064;2023-02-18T00:30:30;10.33;;;5.57;;
76640;SDS011;65538;50.798;6.064;2023-02-18T00:32:55;13.67;;;6.67;;
76640;SDS011;65538;50.798;6.064;2023-02-18T00:35:20;13.97;;;7.53;;
76640;SDS011;65538;50.798;6.064;2023-02-18T00:37:45;12.83;;;8.07;;
76640;SDS011;65538;50.798;6.064;2023-02-18T00:40:11;12.90;;;6.60;;
76640;SDS011;65538;50.798;6.064;2023-02-18T00:42:36;13.32;;;6.55;;
76640;SDS011;65538;50.798;6.064;2023-02-18T00:45:01;10.03;;;4.97;;
76640;SDS011;65538;50.798;6.064;2023-02-18T00:47:26;10.70;;;6.07;;
76640;SDS011;65538;50.798;6.064;2023-02-18T00:49:52;11.17;;;5.77;;
76640;SDS011;65538;50.798;6.064;2023-02-18T00:52:17;16.73;;;5.77;;
76640;SDS011;65538;50.798;6.064;2023-02-18T00:54:42;10.97;;;5.07;;
76640;SDS011;65538;50.798;6.064;2023-02-18T00:57:07;11.57;;;5.03;;
76640;SDS011;65538;50.798;6.064;2023-02-18T00:59:32;10.07;;;5.43;;
76640;SDS011;65538;50.798;6.064;2023-02-18T01:01:58;11.63;;;5.97;;
76640;SDS011;65538;50.798;6.064;2023-02-18T01:04:23;12.70;;;5.50;;
76640;SDS011;65538;50.798;6.064;2023-02-18T01:06:48;13.03;;;7.20;;
76640;SDS011;65538;50.798;6.064;2023-02-18T01:09:13;13.57;;;7.27;;
76640;SDS011;65538;50.798;6.064;2023-02-18T01:11:38;11.77;;;6.00;;
76640;SDS011;65538;50.798;6.064;2023-02-18T01:14:04;12.90;;;7.70;;
76640;SDS011;65538;50.798;6.064;2023-02-18T01:16:29;14.60;;;8.17;;
76640;SDS011;65538;50.798;6.064;2023-02-18T01:18:54;14.30;;;7.93;;
76640;SDS011;65538;50.798;6.064;2023-02-18T01:21:19;19.57;;;9.97;;
76640;SDS011;65538;50.798;6.064;2023-02-18T01:23:45;17.08;;;8.07;;
76640;SDS011;65538;50.798;6.064;2023-02-18T01:26:10;20.70;;;9.53;;
76640;SDS011;65538;50.798;6.064;2023-02-18T01:28:35;24.57;;;12.20;;
76640;SDS011;65538;50.798;6.064;2023-02-18T01:31:04;21.67;;;12.43;;
76640;SDS011;65538;50.798;6.064;2023-02-18T01:33:31;20.52;;;10.43;;
76640;SDS011;65538;50.798;6.064;2023-02-18T01:35:56;18.20;;;8.80;;
76640;SDS011;65538;50.798;6.064;2023-02-18T01:38:21;18.03;;;8.70;;
76640;SDS011;65538;50.798;6.064;2023-02-18T01:40:47;14.57;;;6.93;;
76640;SDS011;65538;50.798;6.064;2023-02-18T01:43:15;14.27;;;8.30;;
76640;SDS011;65538;50.798;6.064;2023-02-18T01:48:11;15.80;;;8.32;;
76640;SDS011;65538;50.798;6.064;2023-02-18T01:50:38;15.38;;;8.00;;
76640;SDS011;65538;50.798;6.064;2023-02-18T01:53:04;13.90;;;7.35;;
76640;SDS011;65538;50.798;6.064;2023-02-18T01:55:30;14.70;;;8.25;;
76640;SDS011;65538;50.798;6.064;2023-02-18T01:57:55;12.00;;;6.78;;
76640;SDS011;65538;50.798;6.064;2023-02-18T02:00:21;10.73;;;4.50;;
76640;SDS011;65538;50.798;6.064;2023-02-18T02:02:47;10.55;;;5.38;;
76640;SDS011;65538;50.798;6.064;2023-02-18T02:05:12;9.13;;;4.47;;
76640;SDS011;65538;50.798;6.064;2023-02-18T02:07:38;7.13;;;3.55;;
76640;SDS011;65538;50.798;6.064;2023-02-18T02:10:03;8.35;;;4.50;;
76640;SDS011;65538;50.798;6.064;2023-02-18T02:17:32;7.23;;;4.40;;
76640;SDS011;65538;50.798;6.064;2023-02-18T02:20:05;7.43;;;3.60;;
76640;SDS011;65538;50.798;6.064;2023-02-18T02:25:07;6.13;;;3.08;;
76640;SDS011;65538;50.798;6.064;2023-02-18T02:36:12;4.97;;;2.35;;
76640;SDS011;65538;50.798;6.064;2023-02-18T02:41:12;4.85;;;2.33;;
76640;SDS011;65538;50.798;6.064;2023-02-18T02:48:58;5.63;;;2.60;;
76640;SDS011;65538;50.798;6.064;2023-02-18T02:51:39;3.58;;;1.50;;
76640;SDS011;65538;50.798;6.064;2023-02-18T02:54:13;5.10;;;2.20;;
76640;SDS011;65538;50.798;6.064;2023-02-18T02:56:39;3.97;;;2.25;;
76640;SDS011;65538;50.798;6.064;2023-02-18T02:59:05;4.05;;;1.83;;
76640;SDS011;65538;50.798;6.064;2023-02-18T03:04:21;2.95;;;1.50;;
76640;SDS011;65538;50.798;6.064;2023-02-18T03:09:31;3.67;;;1.80;;
76640;SDS011;65538;50.798;6.064;2023-02-18T03:12:15;3.90;;;1.70;;
76640;SDS011;65538;50.798;6.064;2023-02-18T03:14:51;4.93;;;2.00;;
76640;SDS011;65538;50.798;6.064;2023-02-18T03:17:26;3.60;;;1.63;;
76640;SDS011;65538;50.798;6.064;2023-02-18T03:19:56;3.70;;;1.88;;
76640;SDS011;65538;50.798;6.064;2023-02-18T03:22:23;3.30;;;1.73;;
76640;SDS011;65538;50.798;6.064;2023-02-18T03:24:51;2.33;;;1.23;;
76640;SDS011;65538;50.798;6.064;2023-02-18T03:27:22;2.13;;;1.10;;
76640;SDS011;65538;50.798;6.064;2023-02-18T03:29:50;4.20;;;2.25;;
76640;SDS011;65538;50.798;6.064;2023-02-18T03:32:17;2.70;;;1.30;;
76640;SDS011;65538;50.798;6.064;2023-02-18T03:34:46;4.25;;;1.80;;
76640;SDS011;65538;50.798;6.064;2023-02-18T03:37:12;5.28;;;2.38;;
76640;SDS011;65538;50.798;6.064;2023-02-18T03:39:39;4.97;;;2.30;;
76640;SDS011;65538;50.798;6.064;2023-02-18T03:42:05;3.65;;;1.90;;
76640;SDS011;65538;50.798;6.064;2023-02-18T03:44:31;4.60;;;2.15;;
76640;SDS011;65538;50.798;6.064;2023-02-18T03:46:56;4.47;;;2.50;;
76640;SDS011;65538;50.798;6.064;2023-02-18T03:49:22;5.82;;;2.53;;
76640;SDS011;65538;50.798;6.064;2023-02-18T03:51:47;3.50;;;1.83;;
76640;SDS011;65538;50.798;6.064;2023-02-18T03:54:12;3.30;;;1.73;;
76640;SDS011;65538;50.798;6.064;2023-02-18T03:56:38;5.25;;;2.78;;
76640;SDS011;65538;50.798;6.064;2023-02-18T03:59:04;5.72;;;2.42;;
76640;SDS011;65538;50.798;6.064;2023-02-18T04:01:29;5.40;;;2.67;;
76640;SDS011;65538;50.798;6.064;2023-02-18T04:03:54;3.60;;;1.87;;
76640;SDS011;65538;50.798;6.064;2023-02-18T04:06:20;5.40;;;3.27;;
76640;SDS011;65538;50.798;6.064;2023-02-18T04:08:45;5.43;;;3.17;;
76640;SDS011;65538;50.798;6.064;2023-02-18T04:11:11;6.10;;;3.50;;
76640;SDS011;65538;50.798;6.064;2023-02-18T04:13:36;5.13;;;2.70;;
76640;SDS011;65538;50.798;6.064;2023-02-18T04:16:01;5.93;;;3.70;;
76640;SDS011;65538;50.798;6.064;2023-02-18T04:18:26;5.30;;;2.77;;
76640;SDS011;65538;50.798;6.064;2023-02-18T04:20:51;4.40;;;2.13;;
76640;SDS011;65538;50.798;6.064;2023-02-18T04:23:17;5.53;;;3.20;;
76640;SDS011;65538;50.798;6.064;2023-02-18T04:25:42;6.00;;;3.27;;
76640;SDS011;65538;50.798;6.064;2023-02-18T04:28:08;7.27;;;3.00;;
76640;SDS011;65538;50.798;6.064;2023-02-18T04:30:35;4.53;;;2.40;;
76640;SDS011;65538;50.798;6.064;2023-02-18T04:33:00;6.37;;;4.00;;
76640;SDS011;65538;50.798;6.064;2023-02-18T04:35:25;6.60;;;2.70;;
76640;SDS011;65538;50.798;6.064;2023-02-18T04:37:50;5.17;;;2.50;;
76640;SDS011;65538;50.798;6.064;2023-02-18T04:40:16;5.40;;;3.03;;
76640;SDS011;65538;50.798;6.064;2023-02-18T04:42:41;4.95;;;2.55;;
76640;SDS011;65538;50.798;6.064;2023-02-18T04:45:06;4.63;;;2.47;;
76640;SDS011;65538;50.798;6.064;2023-02-18T04:47:32;4.80;;;1.95;;
76640;SDS011;65538;50.798;6.064;2023-02-18T04:49:57;5.88;;;2.47;;
76640;SDS011;65538;50.798;6.064;2023-02-18T04:52:23;4.90;;;2.90;;
76640;SDS011;65538;50.798;6.064;2023-02-18T04:54:48;4.87;;;2.40;;
76640;SDS011;65538;50.798;6.064;2023-02-18T04:57:13;3.23;;;1.60;;
76640;SDS011;65538;50.798;6.064;2023-02-18T04:59:38;3.92;;;2.22;;
76640;SDS011;65538;50.798;6.064;2023-02-18T05:02:04;4.63;;;2.60;;
76640;SDS011;65538;50.798;6.064;2023-02-18T05:04:32;4.22;;;1.95;;
76640;SDS011;65538;50.798;6.064;2023-02-18T05:06:57;3.45;;;1.65;;
76640;SDS011;65538;50.798;6.064;2023-02-18T05:09:23;3.58;;;1.60;;
76640;SDS011;65538;50.798;6.064;2023-02-18T05:11:48;3.43;;;1.67;;
76640;SDS011;65538;50.798;6.064;2023-02-18T05:14:13;3.50;;;1.83;;
76640;SDS011;65538;50.798;6.064;2023-02-18T05:16:38;3.60;;;1.73;;
76640;SDS011;65538;50.798;6.064;2023-02-18T05:19:04;3.60;;;1.70;;
76640;SDS011;65538;50.798;6.064;2023-02-18T05:21:29;3.93;;;1.90;;
76640;SDS011;65538;50.798;6.064;2023-02-18T05:23:54;1.80;;;0.90;;
76640;SDS011;65538;50.798;6.064;2023-02-18T05:26:19;3.80;;;1.50;;
76640;SDS011;65538;50.798;6.064;2023-02-18T05:28:44;2.77;;;1.33;;
76640;SDS011;65538;50.798;6.064;2023-02-18T05:31:10;2.57;;;1.10;;
76640;SDS011;65538;50.798;6.064;2023-02-18T05:33:35;2.80;;;1.50;;
76640;SDS011;65538;50.798;6.064;2023-02-18T05:36:00;2.97;;;1.40;;
76640;SDS011;65538;50.798;6.064;2023-02-18T05:38:25;3.40;;;1.00;;
76640;SDS011;65538;50.798;6.064;2023-02-18T05:40:51;2.57;;;1.10;;
76640;SDS011;65538;50.798;6.064;2023-02-18T05:43:16;3.50;;;1.00;;
76640;SDS011;65538;50.798;6.064;2023-02-18T05:45:41;2.30;;;1.10;;
76640;SDS011;65538;50.798;6.064;2023-02-18T05:48:06;1.87;;;0.90;;
76640;SDS011;65538;50.798;6.064;2023-02-18T05:50:31;2.40;;;1.00;;
76640;SDS011;65538;50.798;6.064;2023-02-18T05:52:57;2.40;;;1.20;;
76640;SDS011;65538;50.798;6.064;2023-02-18T05:55:22;1.70;;;0.97;;
76640;SDS011;65538;50.798;6.064;2023-02-18T05:57:48;1.67;;;0.70;;
76640;SDS011;65538;50.798;6.064;2023-02-18T06:00:13;2.63;;;1.00;;
76640;SDS011;65538;50.798;6.064;2023-02-18T06:02:39;2.20;;;1.02;;
76640;SDS011;65538;50.798;6.064;2023-02-18T06:05:04;2.20;;;1.17;;
76640;SDS011;65538;50.798;6.064;2023-02-18T06:07:29;1.75;;;1.00;;
76640;SDS011;65538;50.798;6.064;2023-02-18T06:09:54;2.10;;;0.93;;
76640;SDS011;65538;50.798;6.064;2023-02-18T06:12:20;2.47;;;1.10;;
76640;SDS011;65538;50.798;6.064;2023-02-18T06:14:45;2.60;;;0.70;;
76640;SDS011;65538;50.798;6.064;2023-02-18T06:17:10;2.20;;;1.08;;
76640;SDS011;65538;50.798;6.064;2023-02-18T06:19:36;1.85;;;0.93;;
76640;SDS011;65538;50.798;6.064;2023-02-18T06:22:01;2.17;;;1.27;;
76640;SDS011;65538;50.798;6.064;2023-02-18T06:24:27;3.25;;;1.48;;
76640;SDS011;65538;50.798;6.064;2023-02-18T06:26:52;3.00;;;1.40;;
76640;SDS011;65538;50.798;6.064;2023-02-18T06:29:17;2.83;;;1.20;;
76640;SDS011;65538;50.798;6.064;2023-02-18T06:31:42;3.03;;;1.50;;
76640;SDS011;65538;50.798;6.064;2023-02-18T06:34:07;2.47;;;1.00;;
76640;SDS011;65538;50.798;6.064;2023-02-18T06:36:32;5.07;;;1.50;;
76640;SDS011;65538;50.798;6.064;2023-02-18T06:38:58;2.33;;;1.20;;
76640;SDS011;65538;50.798;6.064;2023-02-18T06:41:23;3.33;;;1.87;;
76640;SDS011;65538;50.798;6.064;2023-02-18T06:43:52;1.73;;;0.82;;
76640;SDS011;65538;50.798;6.064;2023-02-18T06:46:20;2.83;;;1.63;;
76640;SDS011;65538;50.798;6.064;2023-02-18T06:48:45;2.10;;;0.98;;
76640;SDS011;65538;50.798;6.064;2023-02-18T06:51:11;2.40;;;1.20;;
76640;SDS011;65538;50.798;6.064;2023-02-18T06:53:36;3.38;;;1.35;;
76640;SDS011;65538;50.798;6.064;2023-02-18T06:56:01;3.43;;;1.43;;
76640;SDS011;65538;50.798;6.064;2023-02-18T06:58:27;1.95;;;0.88;;
76640;SDS011;65538;50.798;6.064;2023-02-18T07:00:52;3.07;;;1.10;;
76640;SDS011;65538;50.798;6.064;2023-02-18T07:03:17;2.10;;;1.00;;
76640;SDS011;65538;50.798;6.064;2023-02-18T07:05:42;2.70;;;1.40;;
76640;SDS011;65538;50.798;6.064;2023-02-18T07:08:08;2.35;;;1.00;;
76640;SDS011;65538;50.798;6.064;2023-02-18T07:10:33;3.03;;;1.40;;
76640;SDS011;65538;50.798;6.064;2023-02-18T07:12:58;2.67;;;1.40;;
76640;SDS011;65538;50.798;6.064;2023-02-18T07:15:24;3.07;;;1.57;;
76640;SDS011;65538;50.798;6.064;2023-02-18T07:17:53;4.25;;;1.25;;
76640;SDS011;65538;50.798;6.064;2023-02-18T07:20:19;3.42;;;1.52;;
76640;SDS011;65538;50.798;6.064;2023-02-18T07:22:44;2.22;;;0.93;;
76640;SDS011;65538;50.798;6.064;2023-02-18T07:25:10;4.90;;;1.43;;
76640;SDS011;65538;50.798;6.064;2023-02-18T07:27:35;4.53;;;1.70;;
76640;SDS011;65538;50.798;6.064;2023-02-18T07:30:00;4.87;;;1.80;;
76640;SDS011;65538;50.798;6.064;2023-02-18T07:32:25;4.53;;;1.33;;
76640;SDS011;65538;50.798;6.064;2023-02-18T07:34:51;5.05;;;1.95;;
76640;SDS011;65538;50.798;6.064;2023-02-18T07:37:17;7.85;;;1.92;;
76640;SDS011;65538;50.798;6.064;2023-02-18T07:39:42;4.38;;;1.70;;
76640;SDS011;65538;50.798;6.064;2023-02-18T07:42:08;6.83;;;1.77;;
76640;SDS011;65538;50.798;6.064;2023-02-18T07:44:33;8.23;;;1.60;;
76640;SDS011;65538;50.798;6.064;2023-02-18T07:46:59;7.18;;;2.10;;
76640;SDS011;65538;50.798;6.064;2023-02-18T07:49:24;7.53;;;2.72;;
76640;SDS011;65538;50.798;6.064;2023-02-18T07:51:50;8.47;;;2.40;;
76640;SDS011;65538;50.798;6.064;2023-02-18T07:54:15;7.27;;;2.17;;
76640;SDS011;65538;50.798;6.064;2023-02-18T07:56:42;8.48;;;2.83;;
76640;SDS011;65538;50.798;6.064;2023-02-18T07:59:07;9.27;;;2.70;;
76640;SDS011;65538;50.798;6.064;2023-02-18T08:01:32;5.13;;;2.00;;
76640;SDS011;65538;50.798;6.064;2023-02-18T08:04:04;6.50;;;1.92;;
76640;SDS011;65538;50.798;6.064;2023-02-18T08:06:30;4.13;;;2.20;;
76640;SDS011;65538;50.798;6.064;2023-02-18T08:08:57;4.57;;;1.73;;
76640;SDS011;65538;50.798;6.064;2023-02-18T08:11:22;7.10;;;2.20;;
76640;SDS011;65538;50.798;6.064;2023-02-18T08:13:47;7.00;;;2.80;;
76640;SDS011;65538;50.798;6.064;2023-02-18T08:16:13;8.10;;;2.42;;
76640;SDS011;65538;50.798;6.064;2023-02-18T08:18:38;9.10;;;2.00;;
76640;SDS011;65538;50.798;6.064;2023-02-18T08:21:03;6.73;;;2.67;;
76640;SDS011;65538;50.798;6.064;2023-02-18T08:23:28;6.57;;;2.47;;
76640;SDS011;65538;50.798;6.064;2023-02-18T08:25:54;8.00;;;2.70;;
76640;SDS011;65538;50.798;6.064;2023-02-18T08:28:20;8.57;;;2.63;;
76640;SDS011;65538;50.798;6.064;2023-02-18T08:30:46;7.45;;;2.05;;
76640;SDS011;65538;50.798;6.064;2023-02-18T08:33:11;5.47;;;1.90;;
76640;SDS011;65538;50.798;6.064;2023-02-18T08:35:37;8.60;;;2.30;;
76640;SDS011;65538;50.798;6.064;2023-02-18T08:38:02;11.70;;;2.80;;
76640;SDS011;65538;50.798;6.064;2023-02-18T08:40:27;8.67;;;2.33;;
76640;SDS011;65538;50.798;6.064;2023-02-18T08:42:52;7.20;;;2.10;;
76640;SDS011;65538;50.798;6.064;2023-02-18T08:45:17;8.63;;;2.80;;
76640;SDS011;65538;50.798;6.064;2023-02-18T08:47:43;8.33;;;2.63;;
76640;SDS011;65538;50.798;6.064;2023-02-18T08:50:08;7.43;;;1.90;;
76640;SDS011;65538;50.798;6.064;2023-02-18T08:52:33;7.73;;;2.40;;
76640;SDS011;65538;50.798;6.064;2023-02-18T08:54:58;13.03;;;2.43;;
76640;SDS011;65538;50.798;6.064;2023-02-18T08:57:24;9.83;;;2.50;;
76640;SDS011;65538;50.798;6.064;2023-02-18T08:59:49;8.70;;;2.60;;
76640;SDS011;65538;50.798;6.064;2023-02-18T09:02:14;7.93;;;2.20;;
76640;SDS011;65538;50.798;6.064;2023-02-18T09:04:39;6.80;;;2.17;;
76640;SDS011;65538;50.798;6.064;2023-02-18T09:07:05;8.30;;;2.27;;
76640;SDS011;65538;50.798;6.064;2023-02-18T09:09:30;8.52;;;2.35;;
76640;SDS011;65538;50.798;6.064;2023-02-18T09:11:55;7.70;;;1.73;;
76640;SDS011;65538;50.798;6.064;2023-02-18T09:14:20;8.73;;;2.43;;
76640;SDS011;65538;50.798;6.064;2023-02-18T09:16:46;8.00;;;1.93;;
76640;SDS011;65538;50.798;6.064;2023-02-18T09:19:11;6.07;;;1.93;;
76640;SDS011;65538;50.798;6.064;2023-02-18T09:21:36;8.27;;;2.00;;
76640;SDS011;65538;50.798;6.064;2023-02-18T09:24:01;10.67;;;2.80;;
76640;SDS011;65538;50.798;6.064;2023-02-18T09:26:27;5.57;;;1.75;;
76640;SDS011;65538;50.798;6.064;2023-02-18T09:28:53;3.80;;;1.40;;
76640;SDS011;65538;50.798;6.064;2023-02-18T09:31:20;7.10;;;1.80;;
76640;SDS011;65538;50.798;6.064;2023-02-18T09:33:47;8.32;;;2.88;;
76640;SDS011;65538;50.798;6.064;2023-02-18T09:36:13;7.35;;;2.45;;
76640;SDS011;65538;50.798;6.064;2023-02-18T09:38:38;11.73;;;2.28;;
76640;SDS011;65538;50.798;6.064;2023-02-18T09:41:04;9.70;;;2.67;;
76640;SDS011;65538;50.798;6.064;2023-02-18T09:43:48;6.47;;;2.53;;
76640;SDS011;65538;50.798;6.064;2023-02-18T09:46:22;7.85;;;3.10;;
76640;SDS011;65538;50.798;6.064;2023-02-18T09:48:48;7.95;;;2.35;;
76640;SDS011;65538;50.798;6.064;2023-02-18T09:51:15;12.75;;;3.13;;
76640;SDS011;65538;50.798;6.064;2023-02-18T09:53:41;11.20;;;2.83;;
76640;SDS011;65538;50.798;6.064;2023-02-18T09:56:08;6.35;;;2.15;;
76640;SDS011;65538;50.798;6.064;2023-02-18T09:58:35;7.53;;;2.03;;
76640;SDS011;65538;50.798;6.064;2023-02-18T10:01:05;9.23;;;3.22;;
76640;SDS011;65538;50.798;6.064;2023-02-18T10:03:34;5.00;;;2.05;;
76640;SDS011;65538;50.798;6.064;2023-02-18T10:06:02;7.90;;;2.83;;
76640;SDS011;65538;50.798;6.064;2023-02-18T10:08:32;10.85;;;3.85;;
76640;SDS011;65538;50.798;6.064;2023-02-18T10:10:58;11.02;;;3.95;;
76640;SDS011;65538;50.798;6.064;2023-02-18T10:13:25;9.73;;;3.53;;
76640;SDS011;65538;50.798;6.064;2023-02-18T10:15:50;9.13;;;3.83;;
76640;SDS011;65538;50.798;6.064;2023-02-18T10:18:30;6.53;;;2.40;;
76640;SDS011;65538;50.798;6.064;2023-02-18T10:21:08;9.52;;;3.65;;
76640;SDS011;65538;50.798;6.064;2023-02-18T10:23:36;8.65;;;3.15;;
76640;SDS011;65538;50.798;6.064;2023-02-18T10:26:02;8.23;;;4.22;;
76640;SDS011;65538;50.798;6.064;2023-02-18T10:28:29;9.82;;;2.83;;
76640;SDS011;65538;50.798;6.064;2023-02-18T10:31:00;9.23;;;4.07;;
76640;SDS011;65538;50.798;6.064;2023-02-18T10:38:48;5.50;;;3.00;;
76640;SDS011;65538;50.798;6.064;2023-02-18T10:49:22;9.23;;;5.03;;
76640;SDS011;65538;50.798;6.064;2023-02-18T10:51:52;10.07;;;4.45;;
76640;SDS011;65538;50.798;6.064;2023-02-18T10:54:22;8.00;;;3.55;;
76640;SDS011;65538;50.798;6.064;2023-02-18T10:56:48;9.15;;;4.70;;
76640;SDS011;65538;50.798;6.064;2023-02-18T10:59:21;10.70;;;5.32;;
76640;SDS011;65538;50.798;6.064;2023-02-18T11:01:52;8.88;;;4.25;;
76640;SDS011;65538;50.798;6.064;2023-02-18T11:04:18;8.30;;;5.00;;
76640;SDS011;65538;50.798;6.064;2023-02-18T11:06:47;9.55;;;5.32;;
76640;SDS011;65538;50.798;6.064;2023-02-18T11:11:47;11.88;;;5.05;;
76640;SDS011;65538;50.798;6.064;2023-02-18T11:14:12;10.03;;;4.87;;
76640;SDS011;65538;50.798;6.064;2023-02-18T11:16:44;10.35;;;4.72;;
76640;SDS011;65538;50.798;6.064;2023-02-18T11:21:56;8.95;;;3.90;;
76640;SDS011;65538;50.798;6.064;2023-02-18T11:24:30;7.93;;;4.55;;
76640;SDS011;65538;50.798;6.064;2023-02-18T11:26:55;9.03;;;4.60;;
76640;SDS011;65538;50.798;6.064;2023-02-18T11:29:21;6.00;;;3.33;;
76640;SDS011;65538;50.798;6.064;2023-02-18T11:31:48;9.82;;;4.95;;
76640;SDS011;65538;50.798;6.064;2023-02-18T11:34:18;11.05;;;5.07;;
76640;SDS011;65538;50.798;6.064;2023-02-18T11:36:44;10.88;;;4.63;;
76640;SDS011;65538;50.798;6.064;2023-02-18T11:39:20;7.88;;;4.53;;
76640;SDS011;65538;50.798;6.064;2023-02-18T11:41:47;8.32;;;5.35;;
76640;SDS011;65538;50.798;6.064;2023-02-18T11:44:18;14.30;;;5.00;;
76640;SDS011;65538;50.798;6.064;2023-02-18T11:49:40;9.73;;;5.05;;
76640;SDS011;65538;50.798;6.064;2023-02-18T11:52:15;7.93;;;4.68;;
76640;SDS011;65538;50.798;6.064;2023-02-18T11:54:40;9.60;;;4.45;;
76640;SDS011;65538;50.798;6.064;2023-02-18T11:57:09;10.67;;;4.67;;
76640;SDS011;65538;50.798;6.064;2023-02-18T11:59:36;8.00;;;4.75;;
76640;SDS011;65538;50.798;6.064;2023-02-18T12:02:16;10.82;;;3.95;;
76640;SDS011;65538;50.798;6.064;2023-02-18T12:04:47;9.63;;;4.63;;
76640;SDS011;65538;50.798;6.064;2023-02-18T12:07:30;9.05;;;5.65;;
76640;SDS011;65538;50.798;6.064;2023-02-18T12:09:59;11.00;;;5.32;;
76640;SDS011;65538;50.798;6.064;2023-02-18T12:12:29;7.82;;;4.68;;
76640;SDS011;65538;50.798;6.064;2023-02-18T12:14:55;9.00;;;4.53;;
76640;SDS011;65538;50.798;6.064;2023-02-18T12:20:17;6.82;;;4.18;;
76640;SDS011;65538;50.798;6.064;2023-02-18T12:22:41;4.63;;;3.10;;
76640;SDS011;65538;50.798;6.064;2023-02-18T12:28:02;11.85;;;5.22;;
76640;SDS011;65538;50.798;6.064;2023-02-18T12:30:39;11.38;;;5.40;;
76640;SDS011;65538;50.798;6.064;2023-02-18T12:33:18;10.88;;;4.97;;
76640;SDS011;65538;50.798;6.064;2023-02-18T12:35:51;10.68;;;4.25;;
76640;SDS011;65538;50.798;6.064;2023-02-18T12:43:38;12.98;;;6.13;;
76640;SDS011;65538;50.798;6.064;2023-02-18T12:46:13;11.27;;;6.43;;
76640;SDS011;65538;50.798;6.064;2023-02-18T12:59:08;7.65;;;3.45;;
76640;SDS011;65538;50.798;6.064;2023-02-18T13:04:17;12.52;;;4.72;;
76640;SDS011;65538;50.798;6.064;2023-02-18T13:06:49;6.93;;;3.30;;
76640;SDS011;65538;50.798;6.064;2023-02-18T13:09:21;8.80;;;4.72;;
76640;SDS011;65538;50.798;6.064;2023-02-18T13:14:48;6.60;;;4.10;;
76640;SDS011;65538;50.798;6.064;2023-02-18T13:17:19;10.60;;;4.95;;
76640;SDS011;65538;50.798;6.064;2023-02-18T13:19:54;12.05;;;5.72;;
76640;SDS011;65538;50.798;6.064;2023-02-18T13:22:21;8.50;;;4.35;;
76640;SDS011;65538;50.798;6.064;2023-02-18T13:24:48;9.10;;;4.47;;
76640;SDS011;65538;50.798;6.064;2023-02-18T13:39:47;6.85;;;4.13;;
76640;SDS011;65538;50.798;6.064;2023-02-18T13:47:24;9.88;;;4.30;;
76640;SDS011;65538;50.798;6.064;2023-02-18T13:49:57;9.35;;;3.38;;
76640;SDS011;65538;50.798;6.064;2023-02-18T13:52:23;9.23;;;3.37;;
76640;SDS011;65538;50.798;6.064;2023-02-18T13:54:48;9.07;;;5.82;;
76640;SDS011;65538;50.798;6.064;2023-02-18T13:57:14;8.25;;;4.40;;
76640;SDS011;65538;50.798;6.064;2023-02-18T14:09:43;7.45;;;3.53;;
76640;SDS011;65538;50.798;6.064;2023-02-18T14:14:40;9.27;;;5.10;;
76640;SDS011;65538;50.798;6.064;2023-02-18T14:20:04;7.78;;;4.22;;
76640;SDS011;65538;50.798;6.064;2023-02-18T14:22:33;6.97;;;3.83;;
76640;SDS011;65538;50.798;6.064;2023-02-18T14:27:32;8.53;;;3.77;;
76640;SDS011;65538;50.798;6.064;2023-02-18T14:30:02;9.27;;;3.88;;
76640;SDS011;65538;50.798;6.064;2023-02-18T14:32:28;7.95;;;4.63;;
76640;SDS011;65538;50.798;6.064;2023-02-18T14:40:13;8.13;;;4.97;;
76640;SDS011;65538;50.798;6.064;2023-02-18T14:50:25;6.95;;;4.13;;
76640;SDS011;65538;50.798;6.064;2023-02-18T14:52:56;8.32;;;4.03;;
76640;SDS011;65538;50.798;6.064;2023-02-18T14:55:26;6.07;;;2.95;;
76640;SDS011;65538;50.798;6.064;2023-02-18T15:07:10;7.88;;;4.53;;
76640;SDS011;65538;50.798;6.064;2023-02-18T15:12:51;4.95;;;3.45;;
76640;SDS011;65538;50.798;6.064;2023-02-18T15:15:29;7.50;;;4.22;;
76640;SDS011;65538;50.798;6.064;2023-02-18T15:24:52;9.52;;;3.83;;
76640;SDS011;65538;50.798;6.064;2023-02-18T15:33:30;9.27;;;6.03;;
76640;SDS011;65538;50.798;6.064;2023-02-18T15:36:33;8.93;;;5.63;;
76640;SDS011;65538;50.798;6.064;2023-02-18T15:39:02;9.88;;;5.43;;
76640;SDS011;65538;50.798;6.064;2023-02-18T15:41:29;9.95;;;5.93;;
76640;SDS011;65538;50.798;6.064;2023-02-18T15:43:59;11.10;;;7.00;;
76640;SDS011;65538;50.798;6.064;2023-02-18T15:46:25;11.20;;;6.38;;
76640;SDS011;65538;50.798;6.064;2023-02-18T15:48:50;11.18;;;6.50;;
76640;SDS011;65538;50.798;6.064;2023-02-18T15:51:19;12.50;;;6.90;;
76640;SDS011;65538;50.798;6.064;2023-02-18T15:53:46;8.93;;;5.18;;
76640;SDS011;65538;50.798;6.064;2023-02-18T15:56:28;13.13;;;7.78;;
76640;SDS011;65538;50.798;6.064;2023-02-18T15:59:15;13.35;;;7.85;;
76640;SDS011;65538;50.798;6.064;2023-02-18T16:01:41;9.07;;;4.50;;
76640;SDS011;65538;50.798;6.064;2023-02-18T16:04:07;11.40;;;8.07;;
76640;SDS011;65538;50.798;6.064;2023-02-18T16:06:43;12.98;;;7.70;;
76640;SDS011;65538;50.798;6.064;2023-02-18T16:11:51;13.00;;;6.05;;
76640;SDS011;65538;50.798;6.064;2023-02-18T16:14:22;13.07;;;8.70;;
76640;SDS011;65538;50.798;6.064;2023-02-18T16:16:56;12.30;;;7.00;;
76640;SDS011;65538;50.798;6.064;2023-02-18T16:19:24;10.50;;;6.40;;
76640;SDS011;65538;50.798;6.064;2023-02-18T16:21:49;12.30;;;6.70;;
76640;SDS011;65538;50.798;6.064;2023-02-18T16:24:22;12.73;;;6.10;;
76640;SDS011;65538;50.798;6.064;2023-02-18T16:26:49;9.20;;;5.70;;
76640;SDS011;65538;50.798;6.064;2023-02-18T16:29:22;8.18;;;4.95;;
76640;SDS011;65538;50.798;6.064;2023-02-18T16:31:48;10.55;;;5.63;;
76640;SDS011;65538;50.798;6.064;2023-02-18T16:34:13;16.33;;;8.53;;
76640;SDS011;65538;50.798;6.064;2023-02-18T16:36:39;12.30;;;6.47;;
76640;SDS011;65538;50.798;6.064;2023-02-18T16:39:24;12.07;;;7.53;;
76640;SDS011;65538;50.798;6.064;2023-02-18T16:41:49;11.25;;;7.18;;
76640;SDS011;65538;50.798;6.064;2023-02-18T16:44:14;13.13;;;6.57;;
76640;SDS011;65538;50.798;6.064;2023-02-18T16:46:40;14.90;;;9.20;;
76640;SDS011;65538;50.798;6.064;2023-02-18T16:49:07;15.20;;;8.70;;
76640;SDS011;65538;50.798;6.064;2023-02-18T16:51:34;12.63;;;6.85;;
76640;SDS011;65538;50.798;6.064;2023-02-18T16:53:59;16.97;;;11.13;;
76640;SDS011;65538;50.798;6.064;2023-02-18T16:56:26;13.37;;;8.53;;
76640;SDS011;65538;50.798;6.064;2023-02-18T16:58:54;15.23;;;10.27;;
76640;SDS011;65538;50.798;6.064;2023-02-18T17:01:27;12.95;;;8.77;;
76640;SDS011;65538;50.798;6.064;2023-02-18T17:03:53;17.60;;;9.70;;
76640;SDS011;65538;50.798;6.064;2023-02-18T17:06:19;12.40;;;8.10;;
76640;SDS011;65538;50.798;6.064;2023-02-18T17:08:44;13.23;;;6.47;;
76640;SDS011;65538;50.798;6.064;2023-02-18T17:13:42;17.25;;;9.38;;
76640;SDS011;65538;50.798;6.064;2023-02-18T17:16:07;13.83;;;8.23;;
76640;SDS011;65538;50.798;6.064;2023-02-18T17:18:33;16.33;;;8.35;;
76640;SDS011;65538;50.798;6.064;2023-02-18T17:20:58;18.10;;;10.17;;
76640;SDS011;65538;50.798;6.064;2023-02-18T17:23:23;20.67;;;10.27;;
76640;SDS011;65538;50.798;6.064;2023-02-18T17:25:49;15.60;;;8.60;;